Arnoldsville, Georgia
Current Conditions -  °F | °C
As of 12:51 AM on Wednesday 22 Oct 2014 (Local Time) from KAHN Reporting Station
Clear Clear  
Wind Chill: 55°   Ceiling: Unl
Heat Index: 55°   Visibility: 10mi
Dew Point: 46°   Wind: 6mph
Humidity: 72%   Direction: 310°NW
Pressure: 30"   Gusts: NA
Location:  33.91°N, 83.22°W
Report Text: KAHN 220451Z AUTO 31005KT 10SM CLR 13/08 A3000 RMK AO2 SLP157 T01280078 402440089
Loading
Personal Weather Stations






























Interactive Weather Map New forecast layout! Learn more

10-Day Weather Forecast

Advertisements
Track Severe Weather on mobile